sensor_id;sensor_type;location;lat;lon;timestamp;P1;durP1;ratioP1;P2;durP2;ratioP2
68812;SDS011;55808;48.112;11.552;2022-10-10T00:00:01;141.70;;;97.70;;
68812;SDS011;55808;48.112;11.552;2022-10-10T00:02:28;132.00;;;92.10;;
68812;SDS011;55808;48.112;11.552;2022-10-10T00:04:54;115.10;;;90.50;;
68812;SDS011;55808;48.112;11.552;2022-10-10T00:07:19;125.93;;;91.90;;
68812;SDS011;55808;48.112;11.552;2022-10-10T00:09:45;123.90;;;92.93;;
68812;SDS011;55808;48.112;11.552;2022-10-10T00:12:11;125.20;;;94.00;;
68812;SDS011;55808;48.112;11.552;2022-10-10T00:14:37;113.33;;;92.27;;
68812;SDS011;55808;48.112;11.552;2022-10-10T00:17:03;135.17;;;95.10;;
68812;SDS011;55808;48.112;11.552;2022-10-10T00:19:28;126.27;;;93.07;;
68812;SDS011;55808;48.112;11.552;2022-10-10T00:21:54;121.77;;;92.93;;
68812;SDS011;55808;48.112;11.552;2022-10-10T00:24:20;124.20;;;94.30;;
68812;SDS011;55808;48.112;11.552;2022-10-10T00:26:45;101.87;;;89.00;;
68812;SDS011;55808;48.112;11.552;2022-10-10T00:29:11;101.03;;;89.53;;
68812;SDS011;55808;48.112;11.552;2022-10-10T00:31:37;97.97;;;87.27;;
68812;SDS011;55808;48.112;11.552;2022-10-10T00:34:02;147.53;;;96.47;;
68812;SDS011;55808;48.112;11.552;2022-10-10T00:36:28;104.33;;;90.07;;
68812;SDS011;55808;48.112;11.552;2022-10-10T00:38:54;112.20;;;91.40;;
68812;SDS011;55808;48.112;11.552;2022-10-10T00:41:20;102.47;;;90.80;;
68812;SDS011;55808;48.112;11.552;2022-10-10T00:44:02;125.80;;;91.97;;
68812;SDS011;55808;48.112;11.552;2022-10-10T00:46:34;112.83;;;91.03;;
68812;SDS011;55808;48.112;11.552;2022-10-10T00:49:00;110.17;;;89.40;;
68812;SDS011;55808;48.112;11.552;2022-10-10T00:51:27;99.13;;;88.83;;
68812;SDS011;55808;48.112;11.552;2022-10-10T00:53:54;99.43;;;88.80;;
68812;SDS011;55808;48.112;11.552;2022-10-10T00:56:28;117.00;;;90.23;;
68812;SDS011;55808;48.112;11.552;2022-10-10T00:58:58;135.27;;;95.17;;
68812;SDS011;55808;48.112;11.552;2022-10-10T01:01:26;123.53;;;92.77;;
68812;SDS011;55808;48.112;11.552;2022-10-10T01:03:53;131.97;;;94.40;;
68812;SDS011;55808;48.112;11.552;2022-10-10T01:06:21;107.73;;;90.20;;
68812;SDS011;55808;48.112;11.552;2022-10-10T01:08:47;106.57;;;91.50;;
68812;SDS011;55808;48.112;11.552;2022-10-10T01:24:55;110.43;;;91.43;;
68812;SDS011;55808;48.112;11.552;2022-10-10T01:27:40;121.83;;;93.43;;
68812;SDS011;55808;48.112;11.552;2022-10-10T01:30:13;111.43;;;91.50;;
68812;SDS011;55808;48.112;11.552;2022-10-10T01:38:29;114.20;;;92.70;;
68812;SDS011;55808;48.112;11.552;2022-10-10T01:41:09;156.37;;;96.53;;
68812;SDS011;55808;48.112;11.552;2022-10-10T01:43:40;127.07;;;93.83;;
68812;SDS011;55808;48.112;11.552;2022-10-10T01:46:10;107.63;;;93.67;;
68812;SDS011;55808;48.112;11.552;2022-10-10T01:48:41;129.47;;;92.97;;
68812;SDS011;55808;48.112;11.552;2022-10-10T01:57:25;106.07;;;91.57;;
68812;SDS011;55808;48.112;11.552;2022-10-10T02:00:06;123.83;;;91.70;;
68812;SDS011;55808;48.112;11.552;2022-10-10T02:05:15;126.33;;;91.90;;
68812;SDS011;55808;48.112;11.552;2022-10-10T02:10:58;113.43;;;92.67;;
68812;SDS011;55808;48.112;11.552;2022-10-10T02:13:28;111.43;;;91.67;;
68812;SDS011;55808;48.112;11.552;2022-10-10T02:16:02;128.60;;;94.03;;
68812;SDS011;55808;48.112;11.552;2022-10-10T02:18:32;101.93;;;90.67;;
68812;SDS011;55808;48.112;11.552;2022-10-10T02:21:00;111.13;;;93.27;;
68812;SDS011;55808;48.112;11.552;2022-10-10T02:23:29;104.87;;;91.63;;
68812;SDS011;55808;48.112;11.552;2022-10-10T02:25:57;117.33;;;94.03;;
68812;SDS011;55808;48.112;11.552;2022-10-10T02:30:55;122.90;;;93.77;;
68812;SDS011;55808;48.112;11.552;2022-10-10T02:33:26;109.37;;;91.43;;
68812;SDS011;55808;48.112;11.552;2022-10-10T02:35:56;111.23;;;90.70;;
68812;SDS011;55808;48.112;11.552;2022-10-10T02:38:24;109.63;;;90.87;;
68812;SDS011;55808;48.112;11.552;2022-10-10T02:40:51;128.90;;;93.40;;
68812;SDS011;55808;48.112;11.552;2022-10-10T02:43:18;122.77;;;93.30;;
68812;SDS011;55808;48.112;11.552;2022-10-10T02:45:44;116.07;;;92.63;;
68812;SDS011;55808;48.112;11.552;2022-10-10T02:48:10;115.60;;;93.00;;
68812;SDS011;55808;48.112;11.552;2022-10-10T02:50:36;133.20;;;94.70;;
68812;SDS011;55808;48.112;11.552;2022-10-10T02:53:02;135.13;;;94.63;;
68812;SDS011;55808;48.112;11.552;2022-10-10T02:55:28;106.10;;;91.97;;
68812;SDS011;55808;48.112;11.552;2022-10-10T02:57:53;113.50;;;93.20;;
68812;SDS011;55808;48.112;11.552;2022-10-10T03:00:19;127.33;;;95.60;;
68812;SDS011;55808;48.112;11.552;2022-10-10T03:02:45;101.60;;;91.30;;
68812;SDS011;55808;48.112;11.552;2022-10-10T03:05:11;103.67;;;92.43;;
68812;SDS011;55808;48.112;11.552;2022-10-10T03:07:37;102.40;;;91.70;;
68812;SDS011;55808;48.112;11.552;2022-10-10T03:10:03;100.07;;;90.07;;
68812;SDS011;55808;48.112;11.552;2022-10-10T03:12:31;111.33;;;94.73;;
68812;SDS011;55808;48.112;11.552;2022-10-10T03:15:00;103.03;;;91.93;;
68812;SDS011;55808;48.112;11.552;2022-10-10T03:17:25;102.47;;;91.50;;
68812;SDS011;55808;48.112;11.552;2022-10-10T03:19:51;101.00;;;90.47;;
68812;SDS011;55808;48.112;11.552;2022-10-10T03:22:17;102.13;;;91.00;;
68812;SDS011;55808;48.112;11.552;2022-10-10T03:24:42;100.90;;;90.27;;
68812;SDS011;55808;48.112;11.552;2022-10-10T03:27:08;100.63;;;90.00;;
68812;SDS011;55808;48.112;11.552;2022-10-10T03:29:35;114.50;;;95.73;;
68812;SDS011;55808;48.112;11.552;2022-10-10T03:32:00;104.13;;;91.60;;
68812;SDS011;55808;48.112;11.552;2022-10-10T03:34:26;135.93;;;95.60;;
68812;SDS011;55808;48.112;11.552;2022-10-10T03:36:52;122.23;;;92.17;;
68812;SDS011;55808;48.112;11.552;2022-10-10T03:39:17;101.77;;;90.83;;
68812;SDS011;55808;48.112;11.552;2022-10-10T03:41:43;118.40;;;92.27;;
68812;SDS011;55808;48.112;11.552;2022-10-10T03:44:09;106.10;;;91.07;;
68812;SDS011;55808;48.112;11.552;2022-10-10T03:46:34;98.67;;;88.00;;
68812;SDS011;55808;48.112;11.552;2022-10-10T03:49:00;107.13;;;91.30;;
68812;SDS011;55808;48.112;11.552;2022-10-10T03:51:25;104.43;;;91.50;;
68812;SDS011;55808;48.112;11.552;2022-10-10T03:53:51;100.63;;;90.27;;
68812;SDS011;55808;48.112;11.552;2022-10-10T03:56:18;97.70;;;87.47;;
68812;SDS011;55808;48.112;11.552;2022-10-10T03:58:44;97.70;;;88.33;;
68812;SDS011;55808;48.112;11.552;2022-10-10T04:01:09;100.27;;;89.30;;
68812;SDS011;55808;48.112;11.552;2022-10-10T04:03:35;97.30;;;87.20;;
68812;SDS011;55808;48.112;11.552;2022-10-10T04:06:01;98.23;;;88.20;;
68812;SDS011;55808;48.112;11.552;2022-10-10T04:08:26;101.40;;;90.40;;
68812;SDS011;55808;48.112;11.552;2022-10-10T04:10:53;97.87;;;87.80;;
68812;SDS011;55808;48.112;11.552;2022-10-10T04:13:20;95.67;;;86.40;;
68812;SDS011;55808;48.112;11.552;2022-10-10T04:15:49;101.07;;;90.10;;
68812;SDS011;55808;48.112;11.552;2022-10-10T04:18:16;96.43;;;87.00;;
68812;SDS011;55808;48.112;11.552;2022-10-10T04:20:42;95.67;;;86.40;;
68812;SDS011;55808;48.112;11.552;2022-10-10T04:23:07;95.50;;;85.67;;
68812;SDS011;55808;48.112;11.552;2022-10-10T04:25:33;94.60;;;85.37;;
68812;SDS011;55808;48.112;11.552;2022-10-10T04:27:58;99.27;;;88.47;;
68812;SDS011;55808;48.112;11.552;2022-10-10T04:30:24;93.40;;;84.87;;
68812;SDS011;55808;48.112;11.552;2022-10-10T04:32:50;93.10;;;84.80;;
68812;SDS011;55808;48.112;11.552;2022-10-10T04:35:15;92.53;;;83.97;;
68812;SDS011;55808;48.112;11.552;2022-10-10T04:37:41;92.33;;;83.70;;
68812;SDS011;55808;48.112;11.552;2022-10-10T04:40:07;95.10;;;85.40;;
68812;SDS011;55808;48.112;11.552;2022-10-10T04:42:33;94.47;;;85.47;;
68812;SDS011;55808;48.112;11.552;2022-10-10T04:44:59;91.87;;;83.37;;
68812;SDS011;55808;48.112;11.552;2022-10-10T04:47:25;107.87;;;87.60;;
68812;SDS011;55808;48.112;11.552;2022-10-10T04:49:50;93.03;;;84.50;;
68812;SDS011;55808;48.112;11.552;2022-10-10T04:52:16;109.73;;;87.80;;
68812;SDS011;55808;48.112;11.552;2022-10-10T04:54:41;92.23;;;83.50;;
68812;SDS011;55808;48.112;11.552;2022-10-10T04:57:07;93.43;;;84.33;;
68812;SDS011;55808;48.112;11.552;2022-10-10T04:59:33;95.53;;;85.13;;
68812;SDS011;55808;48.112;11.552;2022-10-10T05:01:58;90.47;;;82.43;;
68812;SDS011;55808;48.112;11.552;2022-10-10T05:04:24;95.47;;;85.50;;
68812;SDS011;55808;48.112;11.552;2022-10-10T05:06:50;92.90;;;84.33;;
68812;SDS011;55808;48.112;11.552;2022-10-10T05:09:15;92.87;;;84.03;;
68812;SDS011;55808;48.112;11.552;2022-10-10T05:11:41;93.50;;;84.70;;
68812;SDS011;55808;48.112;11.552;2022-10-10T05:14:07;92.27;;;82.90;;
68812;SDS011;55808;48.112;11.552;2022-10-10T05:16:32;92.80;;;83.70;;
68812;SDS011;55808;48.112;11.552;2022-10-10T05:18:58;90.80;;;82.00;;
68812;SDS011;55808;48.112;11.552;2022-10-10T05:21:25;93.67;;;84.17;;
68812;SDS011;55808;48.112;11.552;2022-10-10T05:23:52;91.23;;;82.97;;
68812;SDS011;55808;48.112;11.552;2022-10-10T05:26:18;92.37;;;84.07;;
68812;SDS011;55808;48.112;11.552;2022-10-10T05:28:44;91.43;;;83.22;;
68812;SDS011;55808;48.112;11.552;2022-10-10T05:31:10;91.07;;;82.33;;
68812;SDS011;55808;48.112;11.552;2022-10-10T05:33:36;94.60;;;84.67;;
68812;SDS011;55808;48.112;11.552;2022-10-10T05:36:06;93.33;;;84.20;;
68812;SDS011;55808;48.112;11.552;2022-10-10T05:38:34;96.30;;;86.18;;
68812;SDS011;55808;48.112;11.552;2022-10-10T05:41:01;94.73;;;85.33;;
68812;SDS011;55808;48.112;11.552;2022-10-10T05:43:27;100.13;;;87.83;;
68812;SDS011;55808;48.112;11.552;2022-10-10T05:45:52;90.63;;;82.03;;
68812;SDS011;55808;48.112;11.552;2022-10-10T05:48:18;92.27;;;83.47;;
68812;SDS011;55808;48.112;11.552;2022-10-10T05:50:45;95.10;;;85.00;;
68812;SDS011;55808;48.112;11.552;2022-10-10T05:53:15;91.57;;;82.97;;
68812;SDS011;55808;48.112;11.552;2022-10-10T05:55:41;93.63;;;84.80;;
68812;SDS011;55808;48.112;11.552;2022-10-10T05:58:08;94.53;;;84.80;;
68812;SDS011;55808;48.112;11.552;2022-10-10T06:00:37;96.15;;;86.03;;
68812;SDS011;55808;48.112;11.552;2022-10-10T06:03:03;108.47;;;89.27;;
68812;SDS011;55808;48.112;11.552;2022-10-10T06:05:29;109.20;;;89.90;;
68812;SDS011;55808;48.112;11.552;2022-10-10T06:07:54;102.17;;;89.10;;
68812;SDS011;55808;48.112;11.552;2022-10-10T06:10:20;101.33;;;88.40;;
68812;SDS011;55808;48.112;11.552;2022-10-10T06:12:46;94.47;;;85.17;;
68812;SDS011;55808;48.112;11.552;2022-10-10T06:15:11;97.20;;;86.70;;
68812;SDS011;55808;48.112;11.552;2022-10-10T06:17:37;96.40;;;86.00;;
68812;SDS011;55808;48.112;11.552;2022-10-10T06:20:02;104.80;;;89.40;;
68812;SDS011;55808;48.112;11.552;2022-10-10T06:22:28;96.13;;;86.03;;
68812;SDS011;55808;48.112;11.552;2022-10-10T06:24:54;110.67;;;90.53;;
68812;SDS011;55808;48.112;11.552;2022-10-10T06:27:19;111.63;;;90.60;;
68812;SDS011;55808;48.112;11.552;2022-10-10T06:29:45;97.27;;;85.07;;
68812;SDS011;55808;48.112;11.552;2022-10-10T06:32:11;115.97;;;91.80;;
68812;SDS011;55808;48.112;11.552;2022-10-10T06:34:37;95.83;;;85.43;;
68812;SDS011;55808;48.112;11.552;2022-10-10T06:37:03;95.23;;;85.30;;
68812;SDS011;55808;48.112;11.552;2022-10-10T06:39:28;98.37;;;87.80;;
68812;SDS011;55808;48.112;11.552;2022-10-10T06:41:54;107.20;;;88.90;;
68812;SDS011;55808;48.112;11.552;2022-10-10T06:44:20;96.23;;;86.13;;
68812;SDS011;55808;48.112;11.552;2022-10-10T06:46:45;110.23;;;89.30;;
68812;SDS011;55808;48.112;11.552;2022-10-10T06:49:11;118.93;;;90.13;;
68812;SDS011;55808;48.112;11.552;2022-10-10T06:51:37;98.20;;;87.90;;
68812;SDS011;55808;48.112;11.552;2022-10-10T06:54:03;91.23;;;81.90;;
68812;SDS011;55808;48.112;11.552;2022-10-10T06:56:29;83.53;;;76.57;;
68812;SDS011;55808;48.112;11.552;2022-10-10T06:58:55;81.90;;;75.10;;
68812;SDS011;55808;48.112;11.552;2022-10-10T07:01:21;80.77;;;74.43;;
68812;SDS011;55808;48.112;11.552;2022-10-10T07:03:48;77.73;;;72.10;;
68812;SDS011;55808;48.112;11.552;2022-10-10T07:06:14;80.47;;;74.00;;
68812;SDS011;55808;48.112;11.552;2022-10-10T07:08:40;79.90;;;73.57;;
68812;SDS011;55808;48.112;11.552;2022-10-10T07:11:06;78.33;;;72.57;;
68812;SDS011;55808;48.112;11.552;2022-10-10T07:13:33;78.50;;;72.80;;
68812;SDS011;55808;48.112;11.552;2022-10-10T07:16:00;79.00;;;72.97;;
68812;SDS011;55808;48.112;11.552;2022-10-10T07:18:26;80.33;;;73.77;;
68812;SDS011;55808;48.112;11.552;2022-10-10T07:20:56;86.37;;;76.97;;
68812;SDS011;55808;48.112;11.552;2022-10-10T07:23:22;80.67;;;73.47;;
68812;SDS011;55808;48.112;11.552;2022-10-10T07:25:48;77.47;;;71.97;;
68812;SDS011;55808;48.112;11.552;2022-10-10T07:28:14;79.30;;;73.30;;
68812;SDS011;55808;48.112;11.552;2022-10-10T07:30:41;79.93;;;73.60;;
68812;SDS011;55808;48.112;11.552;2022-10-10T07:33:08;78.50;;;72.63;;
68812;SDS011;55808;48.112;11.552;2022-10-10T07:35:37;78.37;;;72.80;;
68812;SDS011;55808;48.112;11.552;2022-10-10T07:38:03;82.53;;;75.17;;
68812;SDS011;55808;48.112;11.552;2022-10-10T07:40:29;79.77;;;73.13;;
68812;SDS011;55808;48.112;11.552;2022-10-10T07:42:55;82.70;;;75.20;;
68812;SDS011;55808;48.112;11.552;2022-10-10T07:45:21;81.00;;;74.80;;
68812;SDS011;55808;48.112;11.552;2022-10-10T07:47:47;83.27;;;75.77;;
68812;SDS011;55808;48.112;11.552;2022-10-10T07:50:12;80.13;;;73.80;;
68812;SDS011;55808;48.112;11.552;2022-10-10T07:52:38;84.13;;;75.87;;
68812;SDS011;55808;48.112;11.552;2022-10-10T07:55:04;81.73;;;74.57;;
68812;SDS011;55808;48.112;11.552;2022-10-10T07:57:31;78.87;;;72.87;;
68812;SDS011;55808;48.112;11.552;2022-10-10T07:59:59;80.87;;;74.00;;
68812;SDS011;55808;48.112;11.552;2022-10-10T08:02:26;77.33;;;71.90;;
68812;SDS011;55808;48.112;11.552;2022-10-10T08:04:52;78.73;;;72.93;;
68812;SDS011;55808;48.112;11.552;2022-10-10T08:07:18;84.10;;;75.43;;
68812;SDS011;55808;48.112;11.552;2022-10-10T08:09:43;80.57;;;74.57;;
68812;SDS011;55808;48.112;11.552;2022-10-10T08:12:10;84.80;;;76.67;;
68812;SDS011;55808;48.112;11.552;2022-10-10T08:14:36;82.70;;;75.17;;
68812;SDS011;55808;48.112;11.552;2022-10-10T08:17:01;81.87;;;74.77;;
68812;SDS011;55808;48.112;11.552;2022-10-10T08:19:27;80.63;;;74.00;;
68812;SDS011;55808;48.112;11.552;2022-10-10T08:21:52;82.57;;;75.17;;
68812;SDS011;55808;48.112;11.552;2022-10-10T08:24:18;85.20;;;76.87;;
68812;SDS011;55808;48.112;11.552;2022-10-10T08:26:44;77.63;;;72.40;;
68812;SDS011;55808;48.112;11.552;2022-10-10T08:29:09;78.47;;;72.67;;
68812;SDS011;55808;48.112;11.552;2022-10-10T08:31:35;84.90;;;77.10;;
68812;SDS011;55808;48.112;11.552;2022-10-10T08:34:00;79.30;;;73.17;;
68812;SDS011;55808;48.112;11.552;2022-10-10T08:36:26;86.60;;;78.40;;
68812;SDS011;55808;48.112;11.552;2022-10-10T08:38:53;80.50;;;74.60;;
68812;SDS011;55808;48.112;11.552;2022-10-10T08:41:27;82.47;;;75.93;;
68812;SDS011;55808;48.112;11.552;2022-10-10T08:43:57;82.50;;;75.90;;
68812;SDS011;55808;48.112;11.552;2022-10-10T08:46:34;86.70;;;77.70;;
68812;SDS011;55808;48.112;11.552;2022-10-10T08:49:06;79.00;;;73.40;;
68812;SDS011;55808;48.112;11.552;2022-10-10T08:51:48;81.30;;;74.97;;
68812;SDS011;55808;48.112;11.552;2022-10-10T08:54:24;84.03;;;76.63;;
68812;SDS011;55808;48.112;11.552;2022-10-10T08:56:52;83.67;;;76.33;;
68812;SDS011;55808;48.112;11.552;2022-10-10T08:59:22;78.73;;;73.90;;
68812;SDS011;55808;48.112;11.552;2022-10-10T09:01:53;84.97;;;77.37;;
68812;SDS011;55808;48.112;11.552;2022-10-10T09:04:22;83.80;;;76.63;;
68812;SDS011;55808;48.112;11.552;2022-10-10T09:09:53;82.07;;;75.90;;
68812;SDS011;55808;48.112;11.552;2022-10-10T09:12:47;81.60;;;75.10;;
68812;SDS011;55808;48.112;11.552;2022-10-10T09:15:34;85.63;;;78.13;;
68812;SDS011;55808;48.112;11.552;2022-10-10T09:21:18;87.93;;;79.27;;
68812;SDS011;55808;48.112;11.552;2022-10-10T09:23:57;86.47;;;78.63;;
68812;SDS011;55808;48.112;11.552;2022-10-10T09:26:33;80.97;;;74.83;;
68812;SDS011;55808;48.112;11.552;2022-10-10T09:31:48;85.70;;;78.70;;
68812;SDS011;55808;48.112;11.552;2022-10-10T09:34:32;86.50;;;78.90;;
68812;SDS011;55808;48.112;11.552;2022-10-10T09:37:31;83.73;;;76.90;;
68812;SDS011;55808;48.112;11.552;2022-10-10T09:42:33;81.90;;;75.93;;
68812;SDS011;55808;48.112;11.552;2022-10-10T09:45:02;84.90;;;78.17;;
68812;SDS011;55808;48.112;11.552;2022-10-10T09:47:37;85.83;;;78.90;;
68812;SDS011;55808;48.112;11.552;2022-10-10T09:50:02;84.10;;;77.83;;
68812;SDS011;55808;48.112;11.552;2022-10-10T09:52:29;83.33;;;76.93;;
68812;SDS011;55808;48.112;11.552;2022-10-10T09:54:57;85.23;;;78.83;;
68812;SDS011;55808;48.112;11.552;2022-10-10T09:57:39;87.00;;;79.43;;
68812;SDS011;55808;48.112;11.552;2022-10-10T10:02:48;89.03;;;81.03;;
68812;SDS011;55808;48.112;11.552;2022-10-10T10:05:27;86.60;;;79.50;;
68812;SDS011;55808;48.112;11.552;2022-10-10T10:07:53;84.33;;;78.00;;
68812;SDS011;55808;48.112;11.552;2022-10-10T10:10:22;88.70;;;80.90;;
68812;SDS011;55808;48.112;11.552;2022-10-10T10:12:50;87.53;;;80.00;;
68812;SDS011;55808;48.112;11.552;2022-10-10T10:15:18;92.70;;;82.97;;
68812;SDS011;55808;48.112;11.552;2022-10-10T10:18:12;90.33;;;81.63;;
68812;SDS011;55808;48.112;11.552;2022-10-10T10:20:41;89.50;;;81.30;;
68812;SDS011;55808;48.112;11.552;2022-10-10T10:23:25;91.53;;;82.13;;
68812;SDS011;55808;48.112;11.552;2022-10-10T10:26:00;87.90;;;80.37;;
68812;SDS011;55808;48.112;11.552;2022-10-10T10:28:30;86.43;;;79.30;;
68812;SDS011;55808;48.112;11.552;2022-10-10T10:31:04;87.57;;;80.03;;
68812;SDS011;55808;48.112;11.552;2022-10-10T10:38:54;87.33;;;80.77;;
68812;SDS011;55808;48.112;11.552;2022-10-10T10:41:45;87.80;;;81.03;;
68812;SDS011;55808;48.112;11.552;2022-10-10T10:49:56;90.53;;;82.33;;
68812;SDS011;55808;48.112;11.552;2022-10-10T10:55:13;87.43;;;81.13;;
68812;SDS011;55808;48.112;11.552;2022-10-10T11:06:10;95.13;;;86.03;;
68812;SDS011;55808;48.112;11.552;2022-10-10T11:11:32;91.47;;;83.90;;
68812;SDS011;55808;48.112;11.552;2022-10-10T11:16:46;95.03;;;86.73;;
68812;SDS011;55808;48.112;11.552;2022-10-10T11:19:18;89.30;;;82.33;;
68812;SDS011;55808;48.112;11.552;2022-10-10T11:22:01;91.63;;;84.33;;
68812;SDS011;55808;48.112;11.552;2022-10-10T11:24:34;94.13;;;85.50;;
68812;SDS011;55808;48.112;11.552;2022-10-10T11:27:23;97.57;;;88.27;;
68812;SDS011;55808;48.112;11.552;2022-10-10T11:30:12;96.67;;;87.93;;
68812;SDS011;55808;48.112;11.552;2022-10-10T11:33:06;94.80;;;86.70;;
68812;SDS011;55808;48.112;11.552;2022-10-10T11:35:36;93.13;;;86.57;;
68812;SDS011;55808;48.112;11.552;2022-10-10T11:43:45;97.80;;;88.90;;
68812;SDS011;55808;48.112;11.552;2022-10-10T11:46:25;98.70;;;89.40;;
68812;SDS011;55808;48.112;11.552;2022-10-10T11:49:01;92.47;;;85.30;;
68812;SDS011;55808;48.112;11.552;2022-10-10T11:51:43;95.53;;;86.80;;
68812;SDS011;55808;48.112;11.552;2022-10-10T11:54:40;93.67;;;85.83;;
68812;SDS011;55808;48.112;11.552;2022-10-10T11:57:29;98.87;;;88.40;;
68812;SDS011;55808;48.112;11.552;2022-10-10T12:00:05;90.00;;;83.00;;
68812;SDS011;55808;48.112;11.552;2022-10-10T12:02:36;94.03;;;85.73;;
68812;SDS011;55808;48.112;11.552;2022-10-10T12:05:28;90.57;;;83.40;;
68812;SDS011;55808;48.112;11.552;2022-10-10T12:10:25;90.53;;;83.03;;
68812;SDS011;55808;48.112;11.552;2022-10-10T12:16:01;91.73;;;83.90;;
68812;SDS011;55808;48.112;11.552;2022-10-10T12:18:37;88.53;;;81.70;;
68812;SDS011;55808;48.112;11.552;2022-10-10T12:21:18;90.70;;;83.70;;
68812;SDS011;55808;48.112;11.552;2022-10-10T12:23:48;88.90;;;82.10;;
68812;SDS011;55808;48.112;11.552;2022-10-10T12:26:24;85.87;;;79.43;;
68812;SDS011;55808;48.112;11.552;2022-10-10T12:31:26;91.40;;;82.90;;
68812;SDS011;55808;48.112;11.552;2022-10-10T12:36:42;87.60;;;80.80;;
68812;SDS011;55808;48.112;11.552;2022-10-10T12:44:18;88.03;;;81.13;;
68812;SDS011;55808;48.112;11.552;2022-10-10T12:49:52;86.67;;;80.13;;
68812;SDS011;55808;48.112;11.552;2022-10-10T12:57:47;88.70;;;80.83;;
68812;SDS011;55808;48.112;11.552;2022-10-10T13:02:43;85.77;;;79.30;;
68812;SDS011;55808;48.112;11.552;2022-10-10T13:05:13;85.10;;;79.10;;
68812;SDS011;55808;48.112;11.552;2022-10-10T13:07:42;85.30;;;79.40;;
68812;SDS011;55808;48.112;11.552;2022-10-10T13:10:22;90.07;;;81.60;;
68812;SDS011;55808;48.112;11.552;2022-10-10T13:13:06;85.47;;;79.30;;
68812;SDS011;55808;48.112;11.552;2022-10-10T13:15:42;90.37;;;81.90;;
68812;SDS011;55808;48.112;11.552;2022-10-10T13:18:31;88.80;;;80.90;;
68812;SDS011;55808;48.112;11.552;2022-10-10T13:21:05;82.90;;;77.40;;
68812;SDS011;55808;48.112;11.552;2022-10-10T13:23:39;84.30;;;78.60;;
68812;SDS011;55808;48.112;11.552;2022-10-10T13:26:14;85.57;;;79.37;;
68812;SDS011;55808;48.112;11.552;2022-10-10T13:28:45;85.23;;;78.97;;
68812;SDS011;55808;48.112;11.552;2022-10-10T13:31:11;86.00;;;79.57;;
68812;SDS011;55808;48.112;11.552;2022-10-10T13:33:38;86.80;;;80.10;;
68812;SDS011;55808;48.112;11.552;2022-10-10T13:36:14;85.07;;;79.20;;
68812;SDS011;55808;48.112;11.552;2022-10-10T13:38:43;91.60;;;82.67;;
68812;SDS011;55808;48.112;11.552;2022-10-10T13:41:11;89.67;;;82.07;;
68812;SDS011;55808;48.112;11.552;2022-10-10T13:43:38;90.83;;;82.00;;
68812;SDS011;55808;48.112;11.552;2022-10-10T13:46:04;88.27;;;80.53;;
68812;SDS011;55808;48.112;11.552;2022-10-10T13:48:37;92.47;;;83.67;;
68812;SDS011;55808;48.112;11.552;2022-10-10T13:51:11;88.83;;;81.03;;
68812;SDS011;55808;48.112;11.552;2022-10-10T13:58:44;89.57;;;81.80;;
68812;SDS011;55808;48.112;11.552;2022-10-10T14:01:26;92.63;;;83.13;;
68812;SDS011;55808;48.112;11.552;2022-10-10T14:06:37;90.50;;;82.10;;
68812;SDS011;55808;48.112;11.552;2022-10-10T14:09:16;93.13;;;83.73;;
68812;SDS011;55808;48.112;11.552;2022-10-10T14:11:48;90.47;;;82.70;;
68812;SDS011;55808;48.112;11.552;2022-10-10T14:14:16;88.33;;;80.90;;
68812;SDS011;55808;48.112;11.552;2022-10-10T14:16:55;90.03;;;81.77;;
68812;SDS011;55808;48.112;11.552;2022-10-10T14:19:25;87.50;;;80.50;;
68812;SDS011;55808;48.112;11.552;2022-10-10T14:21:51;87.77;;;80.70;;
68812;SDS011;55808;48.112;11.552;2022-10-10T14:24:16;92.60;;;83.60;;
68812;SDS011;55808;48.112;11.552;2022-10-10T14:26:42;89.07;;;81.53;;
68812;SDS011;55808;48.112;11.552;2022-10-10T14:29:10;90.27;;;81.83;;
68812;SDS011;55808;48.112;11.552;2022-10-10T14:31:38;90.83;;;82.70;;
68812;SDS011;55808;48.112;11.552;2022-10-10T14:34:04;84.90;;;78.83;;
68812;SDS011;55808;48.112;11.552;2022-10-10T14:36:29;87.53;;;81.07;;
68812;SDS011;55808;48.112;11.552;2022-10-10T14:38:55;89.60;;;81.73;;
68812;SDS011;55808;48.112;11.552;2022-10-10T14:41:21;85.63;;;79.10;;
68812;SDS011;55808;48.112;11.552;2022-10-10T14:43:46;92.57;;;83.47;;
68812;SDS011;55808;48.112;11.552;2022-10-10T14:46:18;85.10;;;79.13;;
68812;SDS011;55808;48.112;11.552;2022-10-10T14:48:44;92.57;;;82.77;;
68812;SDS011;55808;48.112;11.552;2022-10-10T14:51:10;84.23;;;78.20;;
68812;SDS011;55808;48.112;11.552;2022-10-10T14:53:36;83.13;;;77.70;;
68812;SDS011;55808;48.112;11.552;2022-10-10T14:56:03;82.00;;;76.77;;
68812;SDS011;55808;48.112;11.552;2022-10-10T14:58:29;84.20;;;78.10;;
68812;SDS011;55808;48.112;11.552;2022-10-10T15:00:55;85.50;;;79.13;;
68812;SDS011;55808;48.112;11.552;2022-10-10T15:03:21;86.07;;;80.10;;
68812;SDS011;55808;48.112;11.552;2022-10-10T15:05:49;85.03;;;79.07;;
68812;SDS011;55808;48.112;11.552;2022-10-10T15:08:17;87.40;;;80.77;;
68812;SDS011;55808;48.112;11.552;2022-10-10T15:10:43;87.10;;;80.23;;
68812;SDS011;55808;48.112;11.552;2022-10-10T15:13:10;83.13;;;77.10;;
68812;SDS011;55808;48.112;11.552;2022-10-10T15:15:39;85.73;;;79.53;;
68812;SDS011;55808;48.112;11.552;2022-10-10T15:18:05;84.03;;;78.33;;
68812;SDS011;55808;48.112;11.552;2022-10-10T15:20:31;84.97;;;79.00;;
68812;SDS011;55808;48.112;11.552;2022-10-10T15:22:57;84.13;;;78.37;;
68812;SDS011;55808;48.112;11.552;2022-10-10T15:25:25;86.43;;;80.07;;
68812;SDS011;55808;48.112;11.552;2022-10-10T15:27:52;86.30;;;79.80;;
68812;SDS011;55808;48.112;11.552;2022-10-10T15:30:20;87.83;;;81.13;;
68812;SDS011;55808;48.112;11.552;2022-10-10T15:32:47;89.43;;;82.07;;
68812;SDS011;55808;48.112;11.552;2022-10-10T15:35:14;90.93;;;82.07;;
68812;SDS011;55808;48.112;11.552;2022-10-10T15:37:41;91.67;;;82.83;;
68812;SDS011;55808;48.112;11.552;2022-10-10T15:40:08;88.87;;;80.37;;
68812;SDS011;55808;48.112;11.552;2022-10-10T15:42:35;89.40;;;81.30;;
68812;SDS011;55808;48.112;11.552;2022-10-10T15:45:01;85.43;;;78.43;;
68812;SDS011;55808;48.112;11.552;2022-10-10T15:47:26;91.53;;;82.70;;
68812;SDS011;55808;48.112;11.552;2022-10-10T15:49:52;86.00;;;79.67;;
68812;SDS011;55808;48.112;11.552;2022-10-10T15:52:18;94.43;;;83.50;;
68812;SDS011;55808;48.112;11.552;2022-10-10T15:54:47;91.50;;;82.80;;
68812;SDS011;55808;48.112;11.552;2022-10-10T15:57:14;85.83;;;79.13;;
68812;SDS011;55808;48.112;11.552;2022-10-10T15:59:41;88.90;;;80.73;;
68812;SDS011;55808;48.112;11.552;2022-10-10T16:02:08;89.33;;;81.33;;
68812;SDS011;55808;48.112;11.552;2022-10-10T16:04:35;91.23;;;82.80;;
68812;SDS011;55808;48.112;11.552;2022-10-10T16:07:02;92.33;;;83.13;;
68812;SDS011;55808;48.112;11.552;2022-10-10T16:09:30;97.17;;;86.30;;
68812;SDS011;55808;48.112;11.552;2022-10-10T16:11:56;87.83;;;81.50;;